createdAt,value
2022-11-05T00:01:49.972Z,2.25
2022-11-05T00:05:32.650Z,2.10
2022-11-05T00:09:13.347Z,2.53
2022-11-05T00:12:53.619Z,2.55
2022-11-05T00:16:36.378Z,3.10
2022-11-05T00:19:59.280Z,3.10
2022-11-05T00:23:55.981Z,2.85
2022-11-05T00:27:18.951Z,2.72
2022-11-05T00:30:41.901Z,3.30
2022-11-05T00:34:04.783Z,2.50
2022-11-05T00:37:28.733Z,2.70
2022-11-05T00:40:53.000Z,2.67
2022-11-05T00:44:44.774Z,2.13
2022-11-05T00:48:25.888Z,2.00
2022-11-05T00:52:08.740Z,2.38
2022-11-05T00:55:34.382Z,2.53
2022-11-05T00:58:58.677Z,2.25
2022-11-05T01:02:21.974Z,1.83
2022-11-05T01:05:46.644Z,2.55
2022-11-05T01:09:09.541Z,2.65
2022-11-05T01:12:32.543Z,2.42
2022-11-05T01:15:57.540Z,2.03
2022-11-05T01:19:20.447Z,2.80
2022-11-05T01:22:43.380Z,3.42
2022-11-05T01:26:06.557Z,2.47
2022-11-05T01:29:29.555Z,2.58
2022-11-05T01:32:53.845Z,2.20
2022-11-05T01:36:17.163Z,2.25
2022-11-05T01:39:40.246Z,2.70
2022-11-05T01:43:03.168Z,2.25
2022-11-05T01:46:30.638Z,2.05
2022-11-05T01:49:55.815Z,2.00
2022-11-05T01:53:26.157Z,2.15
2022-11-05T01:56:52.608Z,2.42
2022-11-05T02:00:16.911Z,1.83
2022-11-05T02:03:40.491Z,2.08
2022-11-05T02:07:08.681Z,2.45
2022-11-05T02:10:32.577Z,2.20
2022-11-05T02:13:55.775Z,2.20
2022-11-05T02:17:27.871Z,2.20
2022-11-05T02:21:00.776Z,2.58
2022-11-05T02:24:50.872Z,1.67
2022-11-05T02:28:28.093Z,2.47
2022-11-05T02:32:00.411Z,2.70
2022-11-05T02:35:37.087Z,2.05
2022-11-05T02:39:14.907Z,2.47
2022-11-05T02:42:45.165Z,2.40
2022-11-05T02:46:16.719Z,2.10
2022-11-05T02:49:48.947Z,2.10
2022-11-05T02:53:16.707Z,1.63
2022-11-05T02:56:43.779Z,2.20
2022-11-05T03:00:24.587Z,2.22
2022-11-05T03:03:49.861Z,1.90
2022-11-05T03:07:40.405Z,2.50
2022-11-05T03:11:12.067Z,1.90
2022-11-05T03:14:42.955Z,2.38
2022-11-05T03:18:15.727Z,1.88
2022-11-05T03:21:44.961Z,2.25
2022-11-05T03:25:13.202Z,2.10
2022-11-05T03:28:39.668Z,2.88
2022-11-05T03:32:05.612Z,2.30
2022-11-05T03:35:31.579Z,2.25
2022-11-05T03:38:57.139Z,1.80
2022-11-05T03:42:26.753Z,2.22
2022-11-05T03:45:54.675Z,2.45
2022-11-05T03:49:21.816Z,2.15
2022-11-05T03:52:50.535Z,1.80
2022-11-05T03:56:19.160Z,2.10
2022-11-05T03:59:45.604Z,2.22
2022-11-05T04:03:08.931Z,1.95
2022-11-05T04:06:49.364Z,1.52
2022-11-05T04:10:30.532Z,1.80
2022-11-05T04:13:53.407Z,2.58
2022-11-05T04:17:17.661Z,2.10
2022-11-05T04:21:00.368Z,2.33
2022-11-05T04:24:23.455Z,1.98
2022-11-05T04:27:46.745Z,1.83
2022-11-05T04:31:08.640Z,1.85
2022-11-05T04:34:33.039Z,2.30
2022-11-05T04:37:55.998Z,2.10
2022-11-05T04:41:19.335Z,2.15
2022-11-05T04:44:42.261Z,2.05
2022-11-05T04:48:05.911Z,2.28
2022-11-05T04:51:30.162Z,1.90
2022-11-05T04:54:53.043Z,2.63
2022-11-05T04:58:15.939Z,1.60
2022-11-05T05:01:38.967Z,1.55
2022-11-05T05:05:01.930Z,2.13
2022-11-05T05:08:26.210Z,1.75
2022-11-05T05:11:49.133Z,2.13
2022-11-05T05:15:13.550Z,2.47
2022-11-05T05:18:38.925Z,2.28
2022-11-05T05:22:04.668Z,1.80
2022-11-05T05:25:28.964Z,1.58
2022-11-05T05:28:53.287Z,2.03
2022-11-05T05:32:16.399Z,2.08
2022-11-05T05:35:39.869Z,2.75
2022-11-05T05:39:05.536Z,2.20
2022-11-05T05:42:29.991Z,2.47
2022-11-05T05:45:52.914Z,2.33
2022-11-05T05:49:16.010Z,1.95
2022-11-05T05:52:38.959Z,1.98
2022-11-05T05:56:02.070Z,2.08
2022-11-05T05:59:26.316Z,2.10
2022-11-05T06:02:49.265Z,2.15
2022-11-05T06:06:13.998Z,2.13
2022-11-05T06:09:36.910Z,2.20
2022-11-05T06:13:00.680Z,1.85
2022-11-05T06:16:24.955Z,1.60
2022-11-05T06:19:47.866Z,2.05
2022-11-05T06:23:11.159Z,1.80
2022-11-05T06:26:34.303Z,2.13
2022-11-05T06:29:57.200Z,2.47
2022-11-05T06:33:21.429Z,2.20
2022-11-05T06:36:44.453Z,2.42
2022-11-05T06:40:09.032Z,2.05
2022-11-05T06:43:31.964Z,1.75
2022-11-05T06:46:54.866Z,2.00
2022-11-05T06:50:19.188Z,2.17
2022-11-05T06:53:42.084Z,2.38
2022-11-05T06:57:06.148Z,2.20
2022-11-05T07:00:29.241Z,2.63
2022-11-05T07:03:52.240Z,1.83
2022-11-05T07:07:16.579Z,2.10
2022-11-05T07:10:39.631Z,2.20
2022-11-05T07:14:02.552Z,2.03
2022-11-05T07:17:25.485Z,2.55
2022-11-05T07:20:49.283Z,1.92
2022-11-05T07:24:15.186Z,2.05
2022-11-05T07:27:41.277Z,1.80
2022-11-05T07:31:04.235Z,2.10
2022-11-05T07:34:27.133Z,2.90
2022-11-05T07:37:51.635Z,2.05
2022-11-05T07:41:15.898Z,1.90
2022-11-05T07:44:38.772Z,2.28
2022-11-05T07:48:03.853Z,2.10
2022-11-05T07:51:26.753Z,2.45
2022-11-05T07:54:49.831Z,2.10
2022-11-05T07:58:14.475Z,2.03
2022-11-05T08:01:37.622Z,2.63
2022-11-05T08:05:00.639Z,1.92
2022-11-05T08:08:23.648Z,2.15
2022-11-05T08:11:46.678Z,2.85
2022-11-05T08:15:11.850Z,2.58
2022-11-05T08:18:35.631Z,2.40
2022-11-05T08:21:58.925Z,2.40
2022-11-05T08:25:23.907Z,2.47
2022-11-05T08:28:46.798Z,2.60
2022-11-05T08:32:11.071Z,2.30
2022-11-05T08:35:35.741Z,2.60
2022-11-05T08:38:58.655Z,2.35
2022-11-05T08:42:21.641Z,2.13
2022-11-05T08:45:44.576Z,3.33
2022-11-05T08:49:08.831Z,3.35
2022-11-05T08:52:32.265Z,1.92
2022-11-05T08:55:59.284Z,2.50
2022-11-05T08:59:22.163Z,3.03
2022-11-05T09:02:45.330Z,2.65
2022-11-05T09:06:09.962Z,2.58
2022-11-05T09:09:33.071Z,2.70
2022-11-05T09:12:56.176Z,2.08
2022-11-05T09:16:22.264Z,2.30
2022-11-05T09:19:45.395Z,2.38
2022-11-05T09:23:11.184Z,2.75
2022-11-05T09:26:34.365Z,2.40
2022-11-05T09:29:57.282Z,2.63
2022-11-05T09:33:26.575Z,2.80
2022-11-05T09:36:49.823Z,2.42
2022-11-05T09:40:18.043Z,2.58
2022-11-05T09:43:45.431Z,2.45
2022-11-05T09:47:14.244Z,2.47
2022-11-05T09:50:41.461Z,3.05
2022-11-05T09:54:05.543Z,2.85
2022-11-05T09:57:33.697Z,2.75
2022-11-05T10:00:57.354Z,2.85
2022-11-05T10:04:23.284Z,3.63
2022-11-05T10:07:49.156Z,3.55
2022-11-05T10:11:17.864Z,3.35
2022-11-05T10:14:47.117Z,4.28
2022-11-05T10:18:15.852Z,3.20
2022-11-05T10:22:04.959Z,3.15
2022-11-05T10:25:23.411Z,3.58
2022-11-05T10:28:46.355Z,3.78
2022-11-05T10:32:17.141Z,3.47
2022-11-05T10:35:48.487Z,4.00
2022-11-05T10:39:14.630Z,4.20
2022-11-05T10:42:50.213Z,3.85
2022-11-05T10:46:28.596Z,3.90
2022-11-05T10:49:59.768Z,4.25
2022-11-05T10:53:26.906Z,4.30
2022-11-05T10:56:50.083Z,3.78
2022-11-05T11:00:21.588Z,5.47
2022-11-05T11:03:46.900Z,4.50
2022-11-05T11:07:22.874Z,4.03
2022-11-05T11:10:51.582Z,3.40
2022-11-05T11:14:22.280Z,5.00
2022-11-05T11:17:45.215Z,4.47
2022-11-05T11:21:14.678Z,3.38
2022-11-05T11:24:41.743Z,3.78
2022-11-05T11:28:07.072Z,4.10
2022-11-05T11:31:31.687Z,3.83
2022-11-05T11:34:57.182Z,3.72
2022-11-05T11:38:20.254Z,3.95
2022-11-05T11:41:46.038Z,3.60
2022-11-05T11:45:18.335Z,4.85
2022-11-05T11:48:43.222Z,3.80
2022-11-05T11:52:12.235Z,3.70
2022-11-05T11:55:35.201Z,3.70
2022-11-05T11:59:03.764Z,3.95
2022-11-05T12:02:58.853Z,3.72
2022-11-05T12:06:30.643Z,3.90
2022-11-05T12:10:11.092Z,4.05
2022-11-05T12:14:04.344Z,4.53
2022-11-05T12:17:44.270Z,3.72
2022-11-05T12:21:13.287Z,3.63
2022-11-05T12:24:55.525Z,3.88
2022-11-05T12:28:32.391Z,4.53
2022-11-05T12:32:34.532Z,3.40
2022-11-05T12:36:15.468Z,3.40
2022-11-05T12:39:46.411Z,3.33
2022-11-05T12:43:20.625Z,3.25
2022-11-05T12:46:50.183Z,4.03
2022-11-05T12:50:23.547Z,2.83
2022-11-05T12:54:12.707Z,3.90
2022-11-05T12:57:41.340Z,4.00
2022-11-05T13:01:08.818Z,3.28
2022-11-05T13:04:36.915Z,3.65
2022-11-05T13:08:07.366Z,3.72
2022-11-05T13:11:36.939Z,4.45
2022-11-05T13:15:05.737Z,3.95
2022-11-05T13:18:36.007Z,4.03
2022-11-05T13:22:07.831Z,3.75
2022-11-05T13:25:33.074Z,3.38
2022-11-05T13:29:03.325Z,3.28
2022-11-05T13:32:31.811Z,4.07
2022-11-05T13:36:17.750Z,3.45
2022-11-05T13:39:45.717Z,3.85
2022-11-05T13:43:23.639Z,3.63
2022-11-05T13:47:05.300Z,3.65
2022-11-05T13:51:04.269Z,3.90
2022-11-05T13:54:54.588Z,4.32
2022-11-05T13:59:01.731Z,3.30
2022-11-05T14:02:29.547Z,4.10
2022-11-05T14:05:56.850Z,3.70
2022-11-05T14:09:24.897Z,3.17
2022-11-05T14:12:51.194Z,3.60
2022-11-05T14:16:20.629Z,3.60
2022-11-05T14:20:25.142Z,3.17
2022-11-05T14:23:52.688Z,2.65
2022-11-05T14:27:44.576Z,3.53
2022-11-05T14:31:47.322Z,3.22
2022-11-05T14:35:38.261Z,3.10
2022-11-05T14:39:18.782Z,3.45
2022-11-05T14:42:41.715Z,2.75
2022-11-05T14:46:07.176Z,3.10
2022-11-05T14:49:34.110Z,3.35
2022-11-05T14:53:00.303Z,2.85
2022-11-05T14:56:23.790Z,3.38
2022-11-05T14:59:57.060Z,3.03
2022-11-05T15:03:32.028Z,2.75
2022-11-05T15:07:30.543Z,2.97
2022-11-05T15:10:57.764Z,2.60
2022-11-05T15:14:28.669Z,2.72
2022-11-05T15:18:01.818Z,3.17
2022-11-05T15:21:26.078Z,3.35
2022-11-05T15:24:49.199Z,3.10
2022-11-05T15:28:20.977Z,3.60
2022-11-05T15:31:45.492Z,2.88
2022-11-05T15:35:23.408Z,2.88
2022-11-05T15:39:08.147Z,3.75
2022-11-05T15:42:29.209Z,3.35
2022-11-05T15:46:16.301Z,2.88
2022-11-05T15:49:39.310Z,2.55
2022-11-05T15:53:20.644Z,2.28
2022-11-05T15:56:51.079Z,3.35
2022-11-05T16:00:21.099Z,4.00
2022-11-05T16:03:45.483Z,3.53
2022-11-05T16:07:11.632Z,2.92
2022-11-05T16:10:36.606Z,2.58
2022-11-05T16:14:16.016Z,3.15
2022-11-05T16:17:47.950Z,2.45
2022-11-05T16:21:13.788Z,2.58
2022-11-05T16:24:36.719Z,2.42
2022-11-05T16:28:00.812Z,2.78
2022-11-05T16:31:25.575Z,2.40
2022-11-05T16:34:51.395Z,2.92
2022-11-05T16:38:15.895Z,2.05
2022-11-05T16:41:43.641Z,2.53
2022-11-05T16:45:07.628Z,3.17
2022-11-05T16:48:30.559Z,3.28
2022-11-05T16:51:53.707Z,2.92
2022-11-05T16:55:19.271Z,2.38
2022-11-05T16:58:44.576Z,2.70
2022-11-05T17:02:11.508Z,3.13
2022-11-05T17:05:34.518Z,3.00
2022-11-05T17:08:57.439Z,3.20
2022-11-05T17:12:21.702Z,2.97
2022-11-05T17:15:46.724Z,4.18
2022-11-05T17:19:16.287Z,3.25
2022-11-05T17:22:39.175Z,3.50
2022-11-05T17:26:03.893Z,3.33
2022-11-05T17:29:28.160Z,3.10
2022-11-05T17:32:51.170Z,2.97
2022-11-05T17:36:16.054Z,3.25
2022-11-05T17:39:39.396Z,3.45
2022-11-05T17:43:03.025Z,3.20
2022-11-05T17:46:27.278Z,4.07
2022-11-05T17:49:50.387Z,2.95
2022-11-05T17:53:14.657Z,2.83
2022-11-05T17:56:44.404Z,3.28
2022-11-05T18:00:09.553Z,3.60
2022-11-05T18:03:35.594Z,2.63
2022-11-05T18:06:58.499Z,2.70
2022-11-05T18:10:21.659Z,3.00
2022-11-05T18:13:44.644Z,2.80
2022-11-05T18:17:07.552Z,2.72
2022-11-05T18:20:32.307Z,2.83
2022-11-05T18:23:55.259Z,2.90
2022-11-05T18:27:18.151Z,2.90
2022-11-05T18:30:41.184Z,2.45
2022-11-05T18:34:04.451Z,3.00
2022-11-05T18:37:28.809Z,2.55
2022-11-05T18:40:51.740Z,2.47
2022-11-05T18:44:16.619Z,2.58
2022-11-05T18:47:39.563Z,2.15
2022-11-05T18:51:07.279Z,2.28
2022-11-05T18:54:31.770Z,3.33
2022-11-05T18:57:54.710Z,2.85
2022-11-05T19:01:19.649Z,2.20
2022-11-05T19:04:55.326Z,2.10
2022-11-05T19:08:26.198Z,2.97
2022-11-05T19:11:52.101Z,2.35
2022-11-05T19:15:15.064Z,2.97
2022-11-05T19:18:38.376Z,2.30
2022-11-05T19:22:01.280Z,3.08
2022-11-05T19:25:24.254Z,2.00
2022-11-05T19:28:49.101Z,2.92
2022-11-05T19:32:11.984Z,2.28
2022-11-05T19:35:40.898Z,2.83
2022-11-05T19:39:06.230Z,2.13
2022-11-05T19:42:29.131Z,2.90
2022-11-05T19:45:53.393Z,2.17
2022-11-05T19:49:16.291Z,2.35
2022-11-05T19:52:39.215Z,2.75
2022-11-05T19:56:06.501Z,2.92
2022-11-05T19:59:29.664Z,2.67
2022-11-05T20:02:54.131Z,2.35
2022-11-05T20:06:20.085Z,2.28
2022-11-05T20:09:42.962Z,2.30
2022-11-05T20:13:05.856Z,2.92
2022-11-05T20:16:32.127Z,2.15
2022-11-05T20:19:56.685Z,3.35
2022-11-05T20:23:19.585Z,3.22
2022-11-05T20:26:42.602Z,2.17
2022-11-05T20:30:06.696Z,1.90
2022-11-05T20:33:29.891Z,2.67
2022-11-05T20:36:54.151Z,3.28
2022-11-05T20:40:17.616Z,2.35
2022-11-05T20:43:41.888Z,2.17
2022-11-05T20:47:05.060Z,2.45
2022-11-05T20:50:28.103Z,2.78
2022-11-05T20:53:55.878Z,2.17
2022-11-05T20:57:18.794Z,2.13
2022-11-05T21:00:48.156Z,2.05
2022-11-05T21:04:11.068Z,2.80
2022-11-05T21:07:34.240Z,2.53
2022-11-05T21:10:58.832Z,2.38
2022-11-05T21:14:21.760Z,2.83
2022-11-05T21:17:45.156Z,2.40
2022-11-05T21:21:09.392Z,2.33
2022-11-05T21:24:33.044Z,2.40
2022-11-05T21:27:57.380Z,2.10
2022-11-05T21:31:20.311Z,2.17
2022-11-05T21:34:43.200Z,2.38
2022-11-05T21:38:06.124Z,2.97
2022-11-05T21:41:29.181Z,2.10
2022-11-05T21:44:57.802Z,2.45
2022-11-05T21:48:23.064Z,1.75
2022-11-05T21:52:03.470Z,2.50
2022-11-05T21:55:44.081Z,1.90
2022-11-05T21:59:39.220Z,2.05
2022-11-05T22:03:03.468Z,2.33
2022-11-05T22:06:26.369Z,2.60
2022-11-05T22:09:49.779Z,1.90
2022-11-05T22:13:12.727Z,2.03
2022-11-05T22:16:35.683Z,2.70
2022-11-05T22:19:59.969Z,1.77
2022-11-05T22:23:22.862Z,2.63
2022-11-05T22:26:46.471Z,1.98
2022-11-05T22:30:10.183Z,1.92
2022-11-05T22:33:33.060Z,2.38
2022-11-05T22:36:57.507Z,1.88
2022-11-05T22:40:23.834Z,1.90
2022-11-05T22:43:47.701Z,2.00
2022-11-05T22:47:10.616Z,2.45
2022-11-05T22:50:34.910Z,1.67
2022-11-05T22:53:59.820Z,1.85
2022-11-05T22:57:22.723Z,2.00
2022-11-05T23:00:45.613Z,1.83
2022-11-05T23:04:08.502Z,2.20
2022-11-05T23:07:49.079Z,2.00
2022-11-05T23:11:38.354Z,2.03
2022-11-05T23:15:05.538Z,2.00
2022-11-05T23:18:46.013Z,2.10
2022-11-05T23:22:29.809Z,2.17
2022-11-05T23:25:57.411Z,1.60
2022-11-05T23:29:22.864Z,2.38
2022-11-05T23:32:46.058Z,1.77
2022-11-05T23:36:31.434Z,2.30
2022-11-05T23:39:54.335Z,2.15
2022-11-05T23:43:34.896Z,1.80
2022-11-05T23:47:16.961Z,1.77
2022-11-05T23:50:40.621Z,1.90
2022-11-05T23:54:03.511Z,2.08
2022-11-05T23:57:26.459Z,2.17
